sensor_id;sensor_type;location;lat;lon;timestamp;temperature;humidity
14585;DHT22;7379;51.506;11.876;2022-12-07T00:01:06;3.80;79.80
14585;DHT22;7379;51.506;11.876;2022-12-07T00:03:33;3.80;79.80
14585;DHT22;7379;51.506;11.876;2022-12-07T00:06:00;3.80;79.90
14585;DHT22;7379;51.506;11.876;2022-12-07T00:08:27;3.80;79.80
14585;DHT22;7379;51.506;11.876;2022-12-07T00:10:58;3.80;79.80
14585;DHT22;7379;51.506;11.876;2022-12-07T00:13:26;3.80;79.80
14585;DHT22;7379;51.506;11.876;2022-12-07T00:15:53;3.80;79.80
14585;DHT22;7379;51.506;11.876;2022-12-07T00:18:20;3.80;79.80
14585;DHT22;7379;51.506;11.876;2022-12-07T00:20:46;3.80;79.80
14585;DHT22;7379;51.506;11.876;2022-12-07T00:23:13;3.80;79.80
14585;DHT22;7379;51.506;11.876;2022-12-07T00:25:40;3.80;79.80
14585;DHT22;7379;51.506;11.876;2022-12-07T00:28:08;3.80;79.80
14585;DHT22;7379;51.506;11.876;2022-12-07T00:30:36;3.80;79.80
14585;DHT22;7379;51.506;11.876;2022-12-07T00:33:03;3.80;79.70
14585;DHT22;7379;51.506;11.876;2022-12-07T00:35:29;3.80;79.70
14585;DHT22;7379;51.506;11.876;2022-12-07T00:37:56;3.80;79.70
14585;DHT22;7379;51.506;11.876;2022-12-07T00:40:23;3.80;79.70
14585;DHT22;7379;51.506;11.876;2022-12-07T00:42:50;3.80;79.70
14585;DHT22;7379;51.506;11.876;2022-12-07T00:45:18;3.80;79.70
14585;DHT22;7379;51.506;11.876;2022-12-07T00:47:45;3.80;79.70
14585;DHT22;7379;51.506;11.876;2022-12-07T00:50:11;3.80;79.60
14585;DHT22;7379;51.506;11.876;2022-12-07T00:52:38;3.80;79.60
14585;DHT22;7379;51.506;11.876;2022-12-07T00:55:05;3.70;79.50
14585;DHT22;7379;51.506;11.876;2022-12-07T00:57:32;3.80;79.60
14585;DHT22;7379;51.506;11.876;2022-12-07T00:59:59;3.70;79.50
14585;DHT22;7379;51.506;11.876;2022-12-07T01:02:27;3.70;79.50
14585;DHT22;7379;51.506;11.876;2022-12-07T01:04:54;3.70;79.50
14585;DHT22;7379;51.506;11.876;2022-12-07T01:07:21;3.70;79.50
14585;DHT22;7379;51.506;11.876;2022-12-07T01:09:48;3.70;79.40
14585;DHT22;7379;51.506;11.876;2022-12-07T01:12:14;3.70;79.40
14585;DHT22;7379;51.506;11.876;2022-12-07T01:14:41;3.70;79.40
14585;DHT22;7379;51.506;11.876;2022-12-07T01:17:08;3.70;79.40
14585;DHT22;7379;51.506;11.876;2022-12-07T01:19:36;3.70;79.40
14585;DHT22;7379;51.506;11.876;2022-12-07T01:22:03;3.70;79.40
14585;DHT22;7379;51.506;11.876;2022-12-07T01:24:30;3.70;79.40
14585;DHT22;7379;51.506;11.876;2022-12-07T01:26:57;3.70;79.40
14585;DHT22;7379;51.506;11.876;2022-12-07T01:29:23;3.70;79.40
14585;DHT22;7379;51.506;11.876;2022-12-07T01:31:50;3.70;79.40
14585;DHT22;7379;51.506;11.876;2022-12-07T01:34:17;3.70;79.40
14585;DHT22;7379;51.506;11.876;2022-12-07T01:36:45;3.70;79.40
14585;DHT22;7379;51.506;11.876;2022-12-07T01:39:12;3.60;79.30
14585;DHT22;7379;51.506;11.876;2022-12-07T01:41:40;3.70;79.30
14585;DHT22;7379;51.506;11.876;2022-12-07T01:44:18;3.70;79.30
14585;DHT22;7379;51.506;11.876;2022-12-07T01:46:46;3.60;79.20
14585;DHT22;7379;51.506;11.876;2022-12-07T01:49:17;3.60;79.20
14585;DHT22;7379;51.506;11.876;2022-12-07T01:51:47;3.60;79.20
14585;DHT22;7379;51.506;11.876;2022-12-07T01:54:16;3.60;79.20
14585;DHT22;7379;51.506;11.876;2022-12-07T01:56:48;3.60;79.20
14585;DHT22;7379;51.506;11.876;2022-12-07T01:59:17;3.60;79.20
14585;DHT22;7379;51.506;11.876;2022-12-07T02:01:44;3.60;79.20
14585;DHT22;7379;51.506;11.876;2022-12-07T02:04:12;3.60;79.20
14585;DHT22;7379;51.506;11.876;2022-12-07T02:06:39;3.60;79.20
14585;DHT22;7379;51.506;11.876;2022-12-07T02:09:08;3.60;79.20
14585;DHT22;7379;51.506;11.876;2022-12-07T02:11:35;3.60;79.20
14585;DHT22;7379;51.506;11.876;2022-12-07T02:14:02;3.60;79.30
14585;DHT22;7379;51.506;11.876;2022-12-07T02:16:34;3.60;79.30
14585;DHT22;7379;51.506;11.876;2022-12-07T02:19:23;3.60;79.30
14585;DHT22;7379;51.506;11.876;2022-12-07T02:21:58;3.60;79.30
14585;DHT22;7379;51.506;11.876;2022-12-07T02:24:45;3.60;79.30
14585;DHT22;7379;51.506;11.876;2022-12-07T02:27:37;3.60;79.30
14585;DHT22;7379;51.506;11.876;2022-12-07T02:30:09;3.60;79.30
14585;DHT22;7379;51.506;11.876;2022-12-07T02:32:44;3.60;79.30
14585;DHT22;7379;51.506;11.876;2022-12-07T02:35:17;3.60;79.30
14585;DHT22;7379;51.506;11.876;2022-12-07T02:37:52;3.60;79.30
14585;DHT22;7379;51.506;11.876;2022-12-07T02:40:25;3.60;79.40
14585;DHT22;7379;51.506;11.876;2022-12-07T02:42:55;3.60;80.10
14585;DHT22;7379;51.506;11.876;2022-12-07T02:45:26;3.60;79.30
14585;DHT22;7379;51.506;11.876;2022-12-07T02:47:57;3.60;79.30
14585;DHT22;7379;51.506;11.876;2022-12-07T02:50:26;3.60;79.30
14585;DHT22;7379;51.506;11.876;2022-12-07T02:52:53;3.60;79.30
14585;DHT22;7379;51.506;11.876;2022-12-07T02:55:25;3.60;79.30
14585;DHT22;7379;51.506;11.876;2022-12-07T02:58:14;3.60;79.30
14585;DHT22;7379;51.506;11.876;2022-12-07T03:00:57;3.60;79.40
14585;DHT22;7379;51.506;11.876;2022-12-07T03:03:28;3.60;79.30
14585;DHT22;7379;51.506;11.876;2022-12-07T03:08:57;3.60;79.40
14585;DHT22;7379;51.506;11.876;2022-12-07T03:11:33;3.60;79.40
14585;DHT22;7379;51.506;11.876;2022-12-07T03:14:11;3.60;79.40
14585;DHT22;7379;51.506;11.876;2022-12-07T03:16:44;3.60;79.40
14585;DHT22;7379;51.506;11.876;2022-12-07T03:19:15;3.60;79.40
14585;DHT22;7379;51.506;11.876;2022-12-07T03:21:46;3.60;79.40
14585;DHT22;7379;51.506;11.876;2022-12-07T03:24:15;3.60;79.40
14585;DHT22;7379;51.506;11.876;2022-12-07T03:26:48;3.60;79.40
14585;DHT22;7379;51.506;11.876;2022-12-07T03:29:19;3.60;79.40
14585;DHT22;7379;51.506;11.876;2022-12-07T03:31:52;3.60;79.40
14585;DHT22;7379;51.506;11.876;2022-12-07T03:34:26;3.60;79.40
14585;DHT22;7379;51.506;11.876;2022-12-07T03:36:57;3.60;80.10
14585;DHT22;7379;51.506;11.876;2022-12-07T03:39:29;3.60;79.40
14585;DHT22;7379;51.506;11.876;2022-12-07T03:42:00;3.60;79.40
14585;DHT22;7379;51.506;11.876;2022-12-07T03:44:28;3.60;79.40
14585;DHT22;7379;51.506;11.876;2022-12-07T03:47:01;3.60;79.40
14585;DHT22;7379;51.506;11.876;2022-12-07T03:49:36;3.60;79.40
14585;DHT22;7379;51.506;11.876;2022-12-07T03:52:11;3.60;79.40
14585;DHT22;7379;51.506;11.876;2022-12-07T03:54:41;3.60;79.30
14585;DHT22;7379;51.506;11.876;2022-12-07T03:57:12;3.60;79.30
14585;DHT22;7379;51.506;11.876;2022-12-07T03:59:39;3.60;79.30
14585;DHT22;7379;51.506;11.876;2022-12-07T04:02:11;3.60;79.30
14585;DHT22;7379;51.506;11.876;2022-12-07T04:04:38;3.60;80.00
14585;DHT22;7379;51.506;11.876;2022-12-07T04:07:05;3.60;79.30
14585;DHT22;7379;51.506;11.876;2022-12-07T04:09:32;3.60;79.30
14585;DHT22;7379;51.506;11.876;2022-12-07T04:11:59;3.60;79.30
14585;DHT22;7379;51.506;11.876;2022-12-07T04:14:26;3.60;79.30
14585;DHT22;7379;51.506;11.876;2022-12-07T04:16:56;3.60;79.30
14585;DHT22;7379;51.506;11.876;2022-12-07T04:19:26;3.60;79.30
14585;DHT22;7379;51.506;11.876;2022-12-07T04:21:52;3.60;79.30
14585;DHT22;7379;51.506;11.876;2022-12-07T04:24:20;3.60;79.30
14585;DHT22;7379;51.506;11.876;2022-12-07T04:26:47;3.60;79.30
14585;DHT22;7379;51.506;11.876;2022-12-07T04:29:14;3.60;79.30
14585;DHT22;7379;51.506;11.876;2022-12-07T04:31:42;3.60;79.30
14585;DHT22;7379;51.506;11.876;2022-12-07T04:34:09;3.60;79.30
14585;DHT22;7379;51.506;11.876;2022-12-07T04:36:38;3.60;79.30
14585;DHT22;7379;51.506;11.876;2022-12-07T04:39:06;3.60;79.30
14585;DHT22;7379;51.506;11.876;2022-12-07T04:41:33;3.60;79.30
14585;DHT22;7379;51.506;11.876;2022-12-07T04:44:02;3.60;79.30
14585;DHT22;7379;51.506;11.876;2022-12-07T04:49:51;3.60;79.30
14585;DHT22;7379;51.506;11.876;2022-12-07T04:52:19;3.60;79.30
14585;DHT22;7379;51.506;11.876;2022-12-07T04:54:46;3.60;79.30
14585;DHT22;7379;51.506;11.876;2022-12-07T04:57:13;3.60;79.30
14585;DHT22;7379;51.506;11.876;2022-12-07T04:59:40;3.60;79.30
14585;DHT22;7379;51.506;11.876;2022-12-07T05:02:06;3.60;79.30
14585;DHT22;7379;51.506;11.876;2022-12-07T05:04:33;3.60;79.20
14585;DHT22;7379;51.506;11.876;2022-12-07T05:07:00;3.70;79.30
14585;DHT22;7379;51.506;11.876;2022-12-07T05:09:28;3.70;79.30
14585;DHT22;7379;51.506;11.876;2022-12-07T05:11:55;3.70;79.20
14585;DHT22;7379;51.506;11.876;2022-12-07T05:14:21;3.60;79.20
14585;DHT22;7379;51.506;11.876;2022-12-07T05:16:49;3.60;79.20
14585;DHT22;7379;51.506;11.876;2022-12-07T05:19:17;3.60;79.20
14585;DHT22;7379;51.506;11.876;2022-12-07T05:21:44;3.60;79.30
14585;DHT22;7379;51.506;11.876;2022-12-07T05:24:12;3.60;79.30
14585;DHT22;7379;51.506;11.876;2022-12-07T05:26:41;3.60;79.30
14585;DHT22;7379;51.506;11.876;2022-12-07T05:29:11;3.60;79.30
14585;DHT22;7379;51.506;11.876;2022-12-07T05:31:38;3.60;79.30
14585;DHT22;7379;51.506;11.876;2022-12-07T05:34:04;3.60;79.20
14585;DHT22;7379;51.506;11.876;2022-12-07T05:36:31;3.60;79.30
14585;DHT22;7379;51.506;11.876;2022-12-07T05:38:58;3.60;79.30
14585;DHT22;7379;51.506;11.876;2022-12-07T05:41:25;3.60;79.30
14585;DHT22;7379;51.506;11.876;2022-12-07T05:44:11;3.60;79.30
14585;DHT22;7379;51.506;11.876;2022-12-07T05:46:38;3.70;79.40
14585;DHT22;7379;51.506;11.876;2022-12-07T05:49:04;3.70;79.40
14585;DHT22;7379;51.506;11.876;2022-12-07T05:51:31;3.60;79.30
14585;DHT22;7379;51.506;11.876;2022-12-07T05:53:58;3.60;79.30
14585;DHT22;7379;51.506;11.876;2022-12-07T05:56:25;3.60;79.30
14585;DHT22;7379;51.506;11.876;2022-12-07T05:58:52;3.60;79.30
14585;DHT22;7379;51.506;11.876;2022-12-07T06:01:38;3.60;79.20
14585;DHT22;7379;51.506;11.876;2022-12-07T06:04:04;3.60;79.30
14585;DHT22;7379;51.506;11.876;2022-12-07T06:06:31;3.70;79.30
14585;DHT22;7379;51.506;11.876;2022-12-07T06:08:58;3.60;79.20
14585;DHT22;7379;51.506;11.876;2022-12-07T06:11:25;3.60;79.30
14585;DHT22;7379;51.506;11.876;2022-12-07T06:14:09;3.60;79.30
14585;DHT22;7379;51.506;11.876;2022-12-07T06:16:37;3.60;79.30
14585;DHT22;7379;51.506;11.876;2022-12-07T06:19:04;3.60;79.30
14585;DHT22;7379;51.506;11.876;2022-12-07T06:21:31;3.60;79.30
14585;DHT22;7379;51.506;11.876;2022-12-07T06:23:57;3.60;79.30
14585;DHT22;7379;51.506;11.876;2022-12-07T06:26:24;3.60;79.20
14585;DHT22;7379;51.506;11.876;2022-12-07T06:28:51;3.60;79.30
14585;DHT22;7379;51.506;11.876;2022-12-07T06:31:18;3.60;79.30
14585;DHT22;7379;51.506;11.876;2022-12-07T06:33:46;3.60;79.30
14585;DHT22;7379;51.506;11.876;2022-12-07T06:36:13;3.60;79.30
14585;DHT22;7379;51.506;11.876;2022-12-07T06:38:39;3.60;79.30
14585;DHT22;7379;51.506;11.876;2022-12-07T06:41:06;3.60;79.40
14585;DHT22;7379;51.506;11.876;2022-12-07T06:43:33;3.60;79.40
14585;DHT22;7379;51.506;11.876;2022-12-07T06:46:00;3.60;79.40
14585;DHT22;7379;51.506;11.876;2022-12-07T06:48:27;3.60;79.40
14585;DHT22;7379;51.506;11.876;2022-12-07T06:50:55;3.60;79.30
14585;DHT22;7379;51.506;11.876;2022-12-07T06:53:22;3.60;79.40
14585;DHT22;7379;51.506;11.876;2022-12-07T06:55:49;3.60;79.30
14585;DHT22;7379;51.506;11.876;2022-12-07T06:58:17;3.60;79.30
14585;DHT22;7379;51.506;11.876;2022-12-07T07:00:44;3.60;79.30
14585;DHT22;7379;51.506;11.876;2022-12-07T07:03:11;3.60;79.30
14585;DHT22;7379;51.506;11.876;2022-12-07T07:05:38;3.60;79.30
14585;DHT22;7379;51.506;11.876;2022-12-07T07:08:06;3.60;79.40
14585;DHT22;7379;51.506;11.876;2022-12-07T07:10:33;3.60;79.40
14585;DHT22;7379;51.506;11.876;2022-12-07T07:13:00;3.60;80.10
14585;DHT22;7379;51.506;11.876;2022-12-07T07:15:27;3.60;79.40
14585;DHT22;7379;51.506;11.876;2022-12-07T07:17:54;3.60;79.40
14585;DHT22;7379;51.506;11.876;2022-12-07T07:20:21;3.60;79.40
14585;DHT22;7379;51.506;11.876;2022-12-07T07:22:49;3.60;79.30
14585;DHT22;7379;51.506;11.876;2022-12-07T07:25:17;3.60;79.30
14585;DHT22;7379;51.506;11.876;2022-12-07T07:27:44;3.60;79.20
14585;DHT22;7379;51.506;11.876;2022-12-07T07:30:11;3.60;80.00
14585;DHT22;7379;51.506;11.876;2022-12-07T07:32:38;3.60;79.30
14585;DHT22;7379;51.506;11.876;2022-12-07T07:35:06;3.60;79.30
14585;DHT22;7379;51.506;11.876;2022-12-07T07:37:32;3.60;79.30
14585;DHT22;7379;51.506;11.876;2022-12-07T07:39:59;3.60;79.30
14585;DHT22;7379;51.506;11.876;2022-12-07T07:42:27;3.60;79.40
14585;DHT22;7379;51.506;11.876;2022-12-07T07:44:54;3.60;79.40
14585;DHT22;7379;51.506;11.876;2022-12-07T07:47:21;3.60;79.40
14585;DHT22;7379;51.506;11.876;2022-12-07T07:49:48;3.60;79.40
14585;DHT22;7379;51.506;11.876;2022-12-07T07:52:14;3.60;79.40
14585;DHT22;7379;51.506;11.876;2022-12-07T07:54:41;3.60;79.40
14585;DHT22;7379;51.506;11.876;2022-12-07T07:57:08;3.60;79.40
14585;DHT22;7379;51.506;11.876;2022-12-07T07:59:36;3.60;79.40
14585;DHT22;7379;51.506;11.876;2022-12-07T08:02:03;3.60;79.40
14585;DHT22;7379;51.506;11.876;2022-12-07T08:04:29;3.60;79.40
14585;DHT22;7379;51.506;11.876;2022-12-07T08:06:56;3.60;79.40
14585;DHT22;7379;51.506;11.876;2022-12-07T08:09:23;3.60;79.30
14585;DHT22;7379;51.506;11.876;2022-12-07T08:11:50;3.60;79.30
14585;DHT22;7379;51.506;11.876;2022-12-07T08:14:17;3.60;79.30
14585;DHT22;7379;51.506;11.876;2022-12-07T08:16:45;3.60;79.30
14585;DHT22;7379;51.506;11.876;2022-12-07T08:19:12;3.60;79.30
14585;DHT22;7379;51.506;11.876;2022-12-07T08:21:38;3.60;79.30
14585;DHT22;7379;51.506;11.876;2022-12-07T08:24:05;3.60;79.30
14585;DHT22;7379;51.506;11.876;2022-12-07T08:26:32;3.60;79.30
14585;DHT22;7379;51.506;11.876;2022-12-07T08:28:59;3.70;79.40
14585;DHT22;7379;51.506;11.876;2022-12-07T08:31:26;3.70;79.50
14585;DHT22;7379;51.506;11.876;2022-12-07T08:33:55;3.60;79.30
14585;DHT22;7379;51.506;11.876;2022-12-07T08:36:22;3.70;79.40
14585;DHT22;7379;51.506;11.876;2022-12-07T08:38:49;3.70;79.40
14585;DHT22;7379;51.506;11.876;2022-12-07T08:41:16;3.70;79.50
14585;DHT22;7379;51.506;11.876;2022-12-07T08:43:43;3.70;79.50
14585;DHT22;7379;51.506;11.876;2022-12-07T08:46:13;3.70;79.50
14585;DHT22;7379;51.506;11.876;2022-12-07T08:48:48;3.70;79.50
14585;DHT22;7379;51.506;11.876;2022-12-07T08:51:17;3.70;79.50
14585;DHT22;7379;51.506;11.876;2022-12-07T08:53:45;3.70;79.50
14585;DHT22;7379;51.506;11.876;2022-12-07T08:56:12;3.70;79.50
14585;DHT22;7379;51.506;11.876;2022-12-07T08:58:39;3.80;79.60
14585;DHT22;7379;51.506;11.876;2022-12-07T09:01:06;3.80;79.60
14585;DHT22;7379;51.506;11.876;2022-12-07T09:03:32;3.80;79.60
14585;DHT22;7379;51.506;11.876;2022-12-07T09:06:00;3.80;79.70
14585;DHT22;7379;51.506;11.876;2022-12-07T09:08:32;3.70;79.70
14585;DHT22;7379;51.506;11.876;2022-12-07T09:11:00;3.70;79.60
14585;DHT22;7379;51.506;11.876;2022-12-07T09:13:27;3.80;79.70
14585;DHT22;7379;51.506;11.876;2022-12-07T09:15:54;3.80;80.50
14585;DHT22;7379;51.506;11.876;2022-12-07T09:18:20;3.80;79.80
14585;DHT22;7379;51.506;11.876;2022-12-07T09:20:47;3.80;79.90
14585;DHT22;7379;51.506;11.876;2022-12-07T09:23:14;3.70;79.80
14585;DHT22;7379;51.506;11.876;2022-12-07T09:25:42;3.80;80.00
14585;DHT22;7379;51.506;11.876;2022-12-07T09:28:09;3.80;80.00
14585;DHT22;7379;51.506;11.876;2022-12-07T09:30:36;3.80;80.10
14585;DHT22;7379;51.506;11.876;2022-12-07T09:33:03;3.80;80.10
14585;DHT22;7379;51.506;11.876;2022-12-07T09:35:29;3.80;80.10
14585;DHT22;7379;51.506;11.876;2022-12-07T09:37:56;3.80;80.10
14585;DHT22;7379;51.506;11.876;2022-12-07T09:40:23;3.80;80.10
14585;DHT22;7379;51.506;11.876;2022-12-07T09:42:54;3.80;80.20
14585;DHT22;7379;51.506;11.876;2022-12-07T09:45:24;3.80;80.20
14585;DHT22;7379;51.506;11.876;2022-12-07T09:47:51;3.80;80.20
14585;DHT22;7379;51.506;11.876;2022-12-07T09:50:21;3.80;80.20
14585;DHT22;7379;51.506;11.876;2022-12-07T09:52:49;3.80;80.20
14585;DHT22;7379;51.506;11.876;2022-12-07T09:55:22;3.90;80.30
14585;DHT22;7379;51.506;11.876;2022-12-07T09:57:52;3.90;80.30
14585;DHT22;7379;51.506;11.876;2022-12-07T10:00:20;3.90;80.40
14585;DHT22;7379;51.506;11.876;2022-12-07T10:02:50;3.90;80.40
14585;DHT22;7379;51.506;11.876;2022-12-07T10:05:22;3.90;80.50
14585;DHT22;7379;51.506;11.876;2022-12-07T10:07:50;3.90;80.50
14585;DHT22;7379;51.506;11.876;2022-12-07T10:10:20;3.90;80.50
14585;DHT22;7379;51.506;11.876;2022-12-07T10:12:57;3.90;80.50
14585;DHT22;7379;51.506;11.876;2022-12-07T10:15:42;4.00;80.60
14585;DHT22;7379;51.506;11.876;2022-12-07T10:18:20;4.00;80.60
14585;DHT22;7379;51.506;11.876;2022-12-07T10:20:48;4.00;80.70
14585;DHT22;7379;51.506;11.876;2022-12-07T10:23:16;4.00;80.70
14585;DHT22;7379;51.506;11.876;2022-12-07T10:25:44;4.00;80.70
14585;DHT22;7379;51.506;11.876;2022-12-07T10:28:16;4.00;80.70
14585;DHT22;7379;51.506;11.876;2022-12-07T10:30:49;4.00;80.70
14585;DHT22;7379;51.506;11.876;2022-12-07T10:33:28;4.00;80.70
14585;DHT22;7379;51.506;11.876;2022-12-07T10:35:56;4.10;80.80
14585;DHT22;7379;51.506;11.876;2022-12-07T10:38:24;4.00;80.70
14585;DHT22;7379;51.506;11.876;2022-12-07T10:41:03;4.10;80.70
14585;DHT22;7379;51.506;11.876;2022-12-07T10:43:32;4.00;80.60
14585;DHT22;7379;51.506;11.876;2022-12-07T10:46:24;4.00;80.70
14585;DHT22;7379;51.506;11.876;2022-12-07T10:49:01;4.10;80.70
14585;DHT22;7379;51.506;11.876;2022-12-07T10:51:34;4.10;80.70
14585;DHT22;7379;51.506;11.876;2022-12-07T10:54:10;4.10;80.70
14585;DHT22;7379;51.506;11.876;2022-12-07T10:57:01;4.10;80.70
14585;DHT22;7379;51.506;11.876;2022-12-07T10:59:42;4.10;80.80
14585;DHT22;7379;51.506;11.876;2022-12-07T11:02:25;4.10;80.70
14585;DHT22;7379;51.506;11.876;2022-12-07T11:05:02;4.10;80.70
14585;DHT22;7379;51.506;11.876;2022-12-07T11:07:42;4.10;80.70
14585;DHT22;7379;51.506;11.876;2022-12-07T11:10:16;4.10;80.70
14585;DHT22;7379;51.506;11.876;2022-12-07T11:12:59;4.10;80.70
14585;DHT22;7379;51.506;11.876;2022-12-07T11:15:38;4.10;80.70
14585;DHT22;7379;51.506;11.876;2022-12-07T11:18:13;4.10;80.70
14585;DHT22;7379;51.506;11.876;2022-12-07T11:20:46;4.10;81.40
14585;DHT22;7379;51.506;11.876;2022-12-07T11:23:39;4.10;80.70
14585;DHT22;7379;51.506;11.876;2022-12-07T11:26:17;4.20;81.50
14585;DHT22;7379;51.506;11.876;2022-12-07T11:29:04;4.10;80.60
14585;DHT22;7379;51.506;11.876;2022-12-07T11:31:38;4.10;80.60
14585;DHT22;7379;51.506;11.876;2022-12-07T11:34:16;4.10;80.70
14585;DHT22;7379;51.506;11.876;2022-12-07T11:36:47;4.10;80.70
14585;DHT22;7379;51.506;11.876;2022-12-07T11:39:22;4.20;80.90
14585;DHT22;7379;51.506;11.876;2022-12-07T11:41:54;4.20;80.90
14585;DHT22;7379;51.506;11.876;2022-12-07T11:44:27;4.20;80.90
14585;DHT22;7379;51.506;11.876;2022-12-07T11:47:04;4.20;80.80
14585;DHT22;7379;51.506;11.876;2022-12-07T11:49:41;4.20;80.80
14585;DHT22;7379;51.506;11.876;2022-12-07T11:52:17;4.20;80.70
14585;DHT22;7379;51.506;11.876;2022-12-07T11:54:46;4.20;80.70
14585;DHT22;7379;51.506;11.876;2022-12-07T11:57:19;4.20;80.60
14585;DHT22;7379;51.506;11.876;2022-12-07T11:59:50;4.20;80.50
14585;DHT22;7379;51.506;11.876;2022-12-07T12:02:23;4.20;80.50
14585;DHT22;7379;51.506;11.876;2022-12-07T12:04:54;4.30;80.50
14585;DHT22;7379;51.506;11.876;2022-12-07T12:07:24;4.20;80.50
14585;DHT22;7379;51.506;11.876;2022-12-07T12:09:54;4.30;80.50
14585;DHT22;7379;51.506;11.876;2022-12-07T12:12:37;4.30;80.50
14585;DHT22;7379;51.506;11.876;2022-12-07T12:15:18;4.30;80.60
14585;DHT22;7379;51.506;11.876;2022-12-07T12:18:17;4.30;80.50
14585;DHT22;7379;51.506;11.876;2022-12-07T12:20:50;4.30;80.50
14585;DHT22;7379;51.506;11.876;2022-12-07T12:23:21;4.30;80.50
14585;DHT22;7379;51.506;11.876;2022-12-07T12:25:50;4.30;80.50
14585;DHT22;7379;51.506;11.876;2022-12-07T12:28:24;4.30;80.30
14585;DHT22;7379;51.506;11.876;2022-12-07T12:31:07;4.30;80.20
14585;DHT22;7379;51.506;11.876;2022-12-07T12:33:37;4.40;80.20
14585;DHT22;7379;51.506;11.876;2022-12-07T12:36:19;4.40;80.10
14585;DHT22;7379;51.506;11.876;2022-12-07T12:39:07;4.40;80.10
14585;DHT22;7379;51.506;11.876;2022-12-07T12:41:53;4.40;80.10
14585;DHT22;7379;51.506;11.876;2022-12-07T12:45:03;4.40;80.10
14585;DHT22;7379;51.506;11.876;2022-12-07T12:47:54;4.40;80.00
14585;DHT22;7379;51.506;11.876;2022-12-07T12:53:46;4.40;80.00
14585;DHT22;7379;51.506;11.876;2022-12-07T12:56:35;4.40;79.90
14585;DHT22;7379;51.506;11.876;2022-12-07T12:59:28;4.40;79.90
14585;DHT22;7379;51.506;11.876;2022-12-07T13:07:58;4.40;79.80
14585;DHT22;7379;51.506;11.876;2022-12-07T13:10:35;4.40;79.70
14585;DHT22;7379;51.506;11.876;2022-12-07T13:13:05;4.40;79.70
14585;DHT22;7379;51.506;11.876;2022-12-07T13:15:52;4.40;79.60
14585;DHT22;7379;51.506;11.876;2022-12-07T13:18:24;4.40;79.60
14585;DHT22;7379;51.506;11.876;2022-12-07T13:20:55;4.40;79.60
14585;DHT22;7379;51.506;11.876;2022-12-07T13:23:30;4.40;79.60
14585;DHT22;7379;51.506;11.876;2022-12-07T13:26:16;4.40;79.60
14585;DHT22;7379;51.506;11.876;2022-12-07T13:28:45;4.40;79.60
14585;DHT22;7379;51.506;11.876;2022-12-07T13:31:23;4.40;79.70
14585;DHT22;7379;51.506;11.876;2022-12-07T13:33:51;4.50;79.80
14585;DHT22;7379;51.506;11.876;2022-12-07T13:36:21;4.40;79.70
14585;DHT22;7379;51.506;11.876;2022-12-07T13:38:51;4.50;79.80
14585;DHT22;7379;51.506;11.876;2022-12-07T13:41:21;4.50;79.80
14585;DHT22;7379;51.506;11.876;2022-12-07T13:44:07;4.50;79.80
14585;DHT22;7379;51.506;11.876;2022-12-07T13:46:43;4.50;79.80
14585;DHT22;7379;51.506;11.876;2022-12-07T13:49:22;4.50;79.80
14585;DHT22;7379;51.506;11.876;2022-12-07T13:51:50;4.50;79.80
14585;DHT22;7379;51.506;11.876;2022-12-07T13:54:17;4.50;79.70
14585;DHT22;7379;51.506;11.876;2022-12-07T13:56:47;4.50;79.60
14585;DHT22;7379;51.506;11.876;2022-12-07T13:59:17;4.50;79.50
14585;DHT22;7379;51.506;11.876;2022-12-07T14:01:46;4.50;79.40
14585;DHT22;7379;51.506;11.876;2022-12-07T14:04:19;4.50;79.30
14585;DHT22;7379;51.506;11.876;2022-12-07T14:06:50;4.50;79.30
14585;DHT22;7379;51.506;11.876;2022-12-07T14:09:19;4.50;79.20
14585;DHT22;7379;51.506;11.876;2022-12-07T14:11:49;4.50;79.20
14585;DHT22;7379;51.506;11.876;2022-12-07T14:14:19;4.50;79.20
14585;DHT22;7379;51.506;11.876;2022-12-07T14:16:56;4.50;79.10
14585;DHT22;7379;51.506;11.876;2022-12-07T14:19:45;4.50;79.20
14585;DHT22;7379;51.506;11.876;2022-12-07T14:22:23;4.50;79.20
14585;DHT22;7379;51.506;11.876;2022-12-07T14:24:50;4.50;79.20
14585;DHT22;7379;51.506;11.876;2022-12-07T14:27:30;4.50;79.10
14585;DHT22;7379;51.506;11.876;2022-12-07T14:29:59;4.50;79.20
14585;DHT22;7379;51.506;11.876;2022-12-07T14:32:28;4.50;79.20
14585;DHT22;7379;51.506;11.876;2022-12-07T14:35:00;4.50;79.20
14585;DHT22;7379;51.506;11.876;2022-12-07T14:37:28;4.50;79.10
14585;DHT22;7379;51.506;11.876;2022-12-07T14:39:55;4.50;79.10
14585;DHT22;7379;51.506;11.876;2022-12-07T14:42:27;4.40;79.00
14585;DHT22;7379;51.506;11.876;2022-12-07T14:44:55;4.40;79.00
14585;DHT22;7379;51.506;11.876;2022-12-07T14:47:22;4.40;79.00
14585;DHT22;7379;51.506;11.876;2022-12-07T14:49:49;4.40;79.00
14585;DHT22;7379;51.506;11.876;2022-12-07T14:52:18;4.40;79.00
14585;DHT22;7379;51.506;11.876;2022-12-07T14:54:45;4.40;79.10
14585;DHT22;7379;51.506;11.876;2022-12-07T14:57:12;4.40;79.00
14585;DHT22;7379;51.506;11.876;2022-12-07T14:59:41;4.50;79.20
14585;DHT22;7379;51.506;11.876;2022-12-07T15:02:10;4.40;79.10
14585;DHT22;7379;51.506;11.876;2022-12-07T15:04:37;4.50;79.20
14585;DHT22;7379;51.506;11.876;2022-12-07T15:07:06;4.40;79.20
14585;DHT22;7379;51.506;11.876;2022-12-07T15:09:32;4.40;79.20
14585;DHT22;7379;51.506;11.876;2022-12-07T15:11:59;4.40;79.20
14585;DHT22;7379;51.506;11.876;2022-12-07T15:14:26;4.40;79.20
14585;DHT22;7379;51.506;11.876;2022-12-07T15:16:54;4.40;79.10
14585;DHT22;7379;51.506;11.876;2022-12-07T15:19:22;4.50;79.10
14585;DHT22;7379;51.506;11.876;2022-12-07T15:21:52;4.50;79.00
14585;DHT22;7379;51.506;11.876;2022-12-07T15:24:19;4.50;79.70
14585;DHT22;7379;51.506;11.876;2022-12-07T15:26:46;4.50;78.90
14585;DHT22;7379;51.506;11.876;2022-12-07T15:29:13;4.50;78.70
14585;DHT22;7379;51.506;11.876;2022-12-07T15:31:42;4.50;78.80
14585;DHT22;7379;51.506;11.876;2022-12-07T15:34:10;4.50;78.80
14585;DHT22;7379;51.506;11.876;2022-12-07T15:36:36;4.50;78.90
14585;DHT22;7379;51.506;11.876;2022-12-07T15:39:03;4.40;78.80
14585;DHT22;7379;51.506;11.876;2022-12-07T15:41:30;4.40;78.90
14585;DHT22;7379;51.506;11.876;2022-12-07T15:43:57;4.40;79.00
14585;DHT22;7379;51.506;11.876;2022-12-07T15:46:41;4.40;79.00
14585;DHT22;7379;51.506;11.876;2022-12-07T15:49:12;4.40;79.10
14585;DHT22;7379;51.506;11.876;2022-12-07T15:51:39;4.40;79.20
14585;DHT22;7379;51.506;11.876;2022-12-07T15:54:06;4.40;79.10
14585;DHT22;7379;51.506;11.876;2022-12-07T15:56:32;4.40;79.20
14585;DHT22;7379;51.506;11.876;2022-12-07T15:58:59;4.40;79.20
14585;DHT22;7379;51.506;11.876;2022-12-07T16:01:26;4.40;79.20
14585;DHT22;7379;51.506;11.876;2022-12-07T16:03:53;4.40;79.20
14585;DHT22;7379;51.506;11.876;2022-12-07T16:06:21;4.40;79.20
14585;DHT22;7379;51.506;11.876;2022-12-07T16:08:48;4.40;79.30
14585;DHT22;7379;51.506;11.876;2022-12-07T16:11:15;4.40;79.30
14585;DHT22;7379;51.506;11.876;2022-12-07T16:13:42;4.30;79.20
14585;DHT22;7379;51.506;11.876;2022-12-07T16:16:12;4.30;79.30
14585;DHT22;7379;51.506;11.876;2022-12-07T16:18:39;4.30;79.30
14585;DHT22;7379;51.506;11.876;2022-12-07T16:21:06;4.30;79.30